sensor_id;sensor_type;location;lat;lon;timestamp;P1;durP1;ratioP1;P2;durP2;ratioP2
39356;SDS011;25077;50.302;18.996;2022-12-07T00:01:49;25.50;;;15.27;;
39356;SDS011;25077;50.302;18.996;2022-12-07T00:04:51;30.37;;;15.40;;
39356;SDS011;25077;50.302;18.996;2022-12-07T00:07:53;31.80;;;16.33;;
39356;SDS011;25077;50.302;18.996;2022-12-07T00:10:59;36.07;;;20.00;;
39356;SDS011;25077;50.302;18.996;2022-12-07T00:14:03;29.63;;;15.97;;
39356;SDS011;25077;50.302;18.996;2022-12-07T00:17:07;30.50;;;14.43;;
39356;SDS011;25077;50.302;18.996;2022-12-07T00:20:09;30.60;;;15.20;;
39356;SDS011;25077;50.302;18.996;2022-12-07T00:23:11;27.73;;;15.00;;
39356;SDS011;25077;50.302;18.996;2022-12-07T00:26:16;28.37;;;15.03;;
39356;SDS011;25077;50.302;18.996;2022-12-07T00:29:20;25.10;;;14.83;;
39356;SDS011;25077;50.302;18.996;2022-12-07T00:32:23;24.63;;;14.03;;
39356;SDS011;25077;50.302;18.996;2022-12-07T00:35:25;27.20;;;12.33;;
39356;SDS011;25077;50.302;18.996;2022-12-07T00:38:27;23.93;;;12.50;;
39356;SDS011;25077;50.302;18.996;2022-12-07T00:41:32;23.93;;;11.97;;
39356;SDS011;25077;50.302;18.996;2022-12-07T00:44:34;26.83;;;13.83;;
39356;SDS011;25077;50.302;18.996;2022-12-07T00:47:36;22.80;;;12.53;;
39356;SDS011;25077;50.302;18.996;2022-12-07T00:50:38;23.07;;;12.70;;
39356;SDS011;25077;50.302;18.996;2022-12-07T00:53:40;24.60;;;13.10;;
39356;SDS011;25077;50.302;18.996;2022-12-07T00:56:43;22.40;;;12.53;;
39356;SDS011;25077;50.302;18.996;2022-12-07T00:59:45;23.60;;;12.13;;
39356;SDS011;25077;50.302;18.996;2022-12-07T01:02:47;23.10;;;12.07;;
39356;SDS011;25077;50.302;18.996;2022-12-07T01:05:50;20.53;;;10.60;;
39356;SDS011;25077;50.302;18.996;2022-12-07T01:08:53;21.47;;;10.67;;
39356;SDS011;25077;50.302;18.996;2022-12-07T01:11:57;21.57;;;11.33;;
39356;SDS011;25077;50.302;18.996;2022-12-07T01:14:59;22.03;;;11.33;;
39356;SDS011;25077;50.302;18.996;2022-12-07T01:18:01;17.13;;;10.43;;
39356;SDS011;25077;50.302;18.996;2022-12-07T01:21:03;19.13;;;11.50;;
39356;SDS011;25077;50.302;18.996;2022-12-07T01:24:08;18.97;;;11.07;;
39356;SDS011;25077;50.302;18.996;2022-12-07T01:27:13;20.20;;;10.63;;
39356;SDS011;25077;50.302;18.996;2022-12-07T01:30:16;20.83;;;10.23;;
39356;SDS011;25077;50.302;18.996;2022-12-07T01:33:18;19.17;;;9.73;;
39356;SDS011;25077;50.302;18.996;2022-12-07T01:36:21;19.27;;;10.60;;
39356;SDS011;25077;50.302;18.996;2022-12-07T01:39:24;18.03;;;10.60;;
39356;SDS011;25077;50.302;18.996;2022-12-07T01:42:28;18.90;;;11.37;;
39356;SDS011;25077;50.302;18.996;2022-12-07T01:45:36;17.27;;;10.47;;
39356;SDS011;25077;50.302;18.996;2022-12-07T01:48:41;20.27;;;12.17;;
39356;SDS011;25077;50.302;18.996;2022-12-07T01:51:44;25.73;;;12.77;;
39356;SDS011;25077;50.302;18.996;2022-12-07T01:54:49;22.30;;;12.50;;
39356;SDS011;25077;50.302;18.996;2022-12-07T01:57:56;23.97;;;13.33;;
39356;SDS011;25077;50.302;18.996;2022-12-07T02:00:58;21.47;;;13.37;;
39356;SDS011;25077;50.302;18.996;2022-12-07T02:04:00;24.77;;;13.30;;
39356;SDS011;25077;50.302;18.996;2022-12-07T02:07:03;25.77;;;13.97;;
39356;SDS011;25077;50.302;18.996;2022-12-07T02:10:13;21.20;;;12.67;;
39356;SDS011;25077;50.302;18.996;2022-12-07T02:13:19;24.00;;;14.07;;
39356;SDS011;25077;50.302;18.996;2022-12-07T02:16:25;24.87;;;14.33;;
39356;SDS011;25077;50.302;18.996;2022-12-07T02:19:51;27.20;;;13.83;;
39356;SDS011;25077;50.302;18.996;2022-12-07T02:23:17;23.57;;;13.80;;
39356;SDS011;25077;50.302;18.996;2022-12-07T02:26:37;23.80;;;13.70;;
39356;SDS011;25077;50.302;18.996;2022-12-07T02:30:04;25.17;;;14.50;;
39356;SDS011;25077;50.302;18.996;2022-12-07T02:33:08;22.73;;;13.53;;
39356;SDS011;25077;50.302;18.996;2022-12-07T02:36:16;25.57;;;14.30;;
39356;SDS011;25077;50.302;18.996;2022-12-07T02:39:23;24.23;;;13.40;;
39356;SDS011;25077;50.302;18.996;2022-12-07T02:42:33;24.40;;;13.07;;
39356;SDS011;25077;50.302;18.996;2022-12-07T02:45:40;22.07;;;14.03;;
39356;SDS011;25077;50.302;18.996;2022-12-07T02:48:44;24.50;;;13.17;;
39356;SDS011;25077;50.302;18.996;2022-12-07T02:51:47;24.63;;;12.70;;
39356;SDS011;25077;50.302;18.996;2022-12-07T02:54:49;22.73;;;12.27;;
39356;SDS011;25077;50.302;18.996;2022-12-07T02:58:02;24.87;;;12.13;;
39356;SDS011;25077;50.302;18.996;2022-12-07T03:01:19;23.10;;;12.60;;
39356;SDS011;25077;50.302;18.996;2022-12-07T03:04:32;21.17;;;11.53;;
39356;SDS011;25077;50.302;18.996;2022-12-07T03:07:48;21.30;;;11.53;;
39356;SDS011;25077;50.302;18.996;2022-12-07T03:10:56;19.57;;;11.43;;
39356;SDS011;25077;50.302;18.996;2022-12-07T03:14:01;20.73;;;11.80;;
39356;SDS011;25077;50.302;18.996;2022-12-07T03:17:13;21.00;;;11.33;;
39356;SDS011;25077;50.302;18.996;2022-12-07T03:20:21;18.63;;;11.23;;
39356;SDS011;25077;50.302;18.996;2022-12-07T03:23:26;18.47;;;10.93;;
39356;SDS011;25077;50.302;18.996;2022-12-07T03:26:31;19.10;;;10.50;;
39356;SDS011;25077;50.302;18.996;2022-12-07T03:29:38;20.20;;;10.70;;
39356;SDS011;25077;50.302;18.996;2022-12-07T03:32:49;19.00;;;10.90;;
39356;SDS011;25077;50.302;18.996;2022-12-07T03:35:57;16.70;;;10.00;;
39356;SDS011;25077;50.302;18.996;2022-12-07T03:39:04;20.10;;;10.80;;
39356;SDS011;25077;50.302;18.996;2022-12-07T03:42:15;19.90;;;11.30;;
39356;SDS011;25077;50.302;18.996;2022-12-07T03:45:17;22.20;;;11.67;;
39356;SDS011;25077;50.302;18.996;2022-12-07T03:48:22;23.90;;;11.63;;
39356;SDS011;25077;50.302;18.996;2022-12-07T03:51:28;25.03;;;12.47;;
39356;SDS011;25077;50.302;18.996;2022-12-07T03:54:39;26.97;;;13.17;;
39356;SDS011;25077;50.302;18.996;2022-12-07T03:57:46;29.50;;;14.70;;
39356;SDS011;25077;50.302;18.996;2022-12-07T04:00:51;26.30;;;14.07;;
39356;SDS011;25077;50.302;18.996;2022-12-07T04:03:55;24.97;;;14.60;;
39356;SDS011;25077;50.302;18.996;2022-12-07T04:06:57;29.40;;;15.97;;
39356;SDS011;25077;50.302;18.996;2022-12-07T04:09:59;28.93;;;15.40;;
39356;SDS011;25077;50.302;18.996;2022-12-07T04:13:01;37.93;;;16.83;;
39356;SDS011;25077;50.302;18.996;2022-12-07T04:16:03;27.10;;;14.07;;
39356;SDS011;25077;50.302;18.996;2022-12-07T04:19:07;29.70;;;14.73;;
39356;SDS011;25077;50.302;18.996;2022-12-07T04:22:09;31.67;;;14.30;;
39356;SDS011;25077;50.302;18.996;2022-12-07T04:25:11;26.67;;;13.97;;
39356;SDS011;25077;50.302;18.996;2022-12-07T04:28:13;22.07;;;13.00;;
39356;SDS011;25077;50.302;18.996;2022-12-07T04:31:15;23.17;;;13.20;;
39356;SDS011;25077;50.302;18.996;2022-12-07T04:34:18;20.80;;;12.40;;
39356;SDS011;25077;50.302;18.996;2022-12-07T04:37:21;24.63;;;11.87;;
39356;SDS011;25077;50.302;18.996;2022-12-07T04:40:23;20.93;;;11.93;;
39356;SDS011;25077;50.302;18.996;2022-12-07T04:43:25;18.47;;;10.60;;
39356;SDS011;25077;50.302;18.996;2022-12-07T04:46:27;20.47;;;11.60;;
39356;SDS011;25077;50.302;18.996;2022-12-07T04:49:32;20.80;;;11.87;;
39356;SDS011;25077;50.302;18.996;2022-12-07T04:52:34;22.13;;;12.70;;
39356;SDS011;25077;50.302;18.996;2022-12-07T04:55:36;24.80;;;13.33;;
39356;SDS011;25077;50.302;18.996;2022-12-07T04:58:38;23.70;;;12.70;;
39356;SDS011;25077;50.302;18.996;2022-12-07T05:01:40;19.53;;;11.30;;
39356;SDS011;25077;50.302;18.996;2022-12-07T05:04:44;18.70;;;11.53;;
39356;SDS011;25077;50.302;18.996;2022-12-07T05:07:46;19.17;;;11.90;;
39356;SDS011;25077;50.302;18.996;2022-12-07T05:10:48;18.27;;;10.53;;
39356;SDS011;25077;50.302;18.996;2022-12-07T05:13:50;17.60;;;9.33;;
39356;SDS011;25077;50.302;18.996;2022-12-07T05:16:52;17.37;;;8.90;;
39356;SDS011;25077;50.302;18.996;2022-12-07T05:19:56;16.53;;;9.87;;
39356;SDS011;25077;50.302;18.996;2022-12-07T05:22:58;16.57;;;9.50;;
39356;SDS011;25077;50.302;18.996;2022-12-07T05:26:00;14.87;;;9.03;;
39356;SDS011;25077;50.302;18.996;2022-12-07T05:29:02;18.77;;;8.20;;
39356;SDS011;25077;50.302;18.996;2022-12-07T05:32:05;16.70;;;8.30;;
39356;SDS011;25077;50.302;18.996;2022-12-07T05:35:09;16.10;;;9.07;;
39356;SDS011;25077;50.302;18.996;2022-12-07T05:38:11;12.37;;;7.47;;
39356;SDS011;25077;50.302;18.996;2022-12-07T05:41:14;18.27;;;8.27;;
39356;SDS011;25077;50.302;18.996;2022-12-07T05:44:35;12.83;;;7.70;;
39356;SDS011;25077;50.302;18.996;2022-12-07T05:47:37;12.60;;;7.30;;
39356;SDS011;25077;50.302;18.996;2022-12-07T05:50:41;16.03;;;8.20;;
39356;SDS011;25077;50.302;18.996;2022-12-07T05:53:43;13.37;;;7.43;;
39356;SDS011;25077;50.302;18.996;2022-12-07T05:56:45;14.33;;;8.20;;
39356;SDS011;25077;50.302;18.996;2022-12-07T05:59:47;13.63;;;7.80;;
39356;SDS011;25077;50.302;18.996;2022-12-07T06:02:49;16.03;;;8.67;;
39356;SDS011;25077;50.302;18.996;2022-12-07T06:05:52;17.97;;;8.33;;
39356;SDS011;25077;50.302;18.996;2022-12-07T06:08:55;12.60;;;7.27;;
39356;SDS011;25077;50.302;18.996;2022-12-07T06:11:57;13.83;;;7.80;;
39356;SDS011;25077;50.302;18.996;2022-12-07T06:15:17;16.17;;;8.43;;
39356;SDS011;25077;50.302;18.996;2022-12-07T06:18:19;15.77;;;9.07;;
39356;SDS011;25077;50.302;18.996;2022-12-07T06:21:22;14.93;;;9.60;;
39356;SDS011;25077;50.302;18.996;2022-12-07T06:24:26;16.30;;;10.40;;
39356;SDS011;25077;50.302;18.996;2022-12-07T06:27:28;20.17;;;10.97;;
39356;SDS011;25077;50.302;18.996;2022-12-07T06:30:30;19.37;;;10.67;;
39356;SDS011;25077;50.302;18.996;2022-12-07T06:33:32;18.73;;;11.27;;
39356;SDS011;25077;50.302;18.996;2022-12-07T06:36:36;18.53;;;10.93;;
39356;SDS011;25077;50.302;18.996;2022-12-07T06:39:38;19.30;;;11.43;;
39356;SDS011;25077;50.302;18.996;2022-12-07T06:42:40;21.87;;;13.10;;
39356;SDS011;25077;50.302;18.996;2022-12-07T06:45:42;21.03;;;13.07;;
39356;SDS011;25077;50.302;18.996;2022-12-07T06:48:44;19.90;;;11.17;;
39356;SDS011;25077;50.302;18.996;2022-12-07T06:51:48;19.60;;;11.87;;
39356;SDS011;25077;50.302;18.996;2022-12-07T06:54:50;21.40;;;11.77;;
39356;SDS011;25077;50.302;18.996;2022-12-07T06:57:52;15.37;;;9.83;;
39356;SDS011;25077;50.302;18.996;2022-12-07T07:00:54;18.33;;;10.57;;
39356;SDS011;25077;50.302;18.996;2022-12-07T07:03:56;20.60;;;11.60;;
39356;SDS011;25077;50.302;18.996;2022-12-07T07:06:59;17.03;;;11.13;;
39356;SDS011;25077;50.302;18.996;2022-12-07T07:10:01;18.77;;;11.10;;
39356;SDS011;25077;50.302;18.996;2022-12-07T07:13:03;22.40;;;12.10;;
39356;SDS011;25077;50.302;18.996;2022-12-07T07:16:06;17.97;;;9.93;;
39356;SDS011;25077;50.302;18.996;2022-12-07T07:19:08;18.13;;;11.07;;
39356;SDS011;25077;50.302;18.996;2022-12-07T07:22:12;19.53;;;11.63;;
39356;SDS011;25077;50.302;18.996;2022-12-07T07:25:14;22.60;;;11.27;;
39356;SDS011;25077;50.302;18.996;2022-12-07T07:28:16;19.73;;;11.23;;
39356;SDS011;25077;50.302;18.996;2022-12-07T07:31:19;22.73;;;12.33;;
39356;SDS011;25077;50.302;18.996;2022-12-07T07:34:21;19.47;;;11.10;;
39356;SDS011;25077;50.302;18.996;2022-12-07T07:37:24;17.17;;;11.60;;
39356;SDS011;25077;50.302;18.996;2022-12-07T07:40:27;19.20;;;11.10;;
39356;SDS011;25077;50.302;18.996;2022-12-07T07:43:30;18.83;;;11.47;;
39356;SDS011;25077;50.302;18.996;2022-12-07T07:46:32;19.50;;;10.93;;
39356;SDS011;25077;50.302;18.996;2022-12-07T07:49:34;18.57;;;10.60;;
39356;SDS011;25077;50.302;18.996;2022-12-07T07:52:38;19.57;;;10.77;;
39356;SDS011;25077;50.302;18.996;2022-12-07T07:55:40;23.63;;;13.10;;
39356;SDS011;25077;50.302;18.996;2022-12-07T07:58:42;18.77;;;10.93;;
39356;SDS011;25077;50.302;18.996;2022-12-07T08:01:44;21.53;;;12.23;;
39356;SDS011;25077;50.302;18.996;2022-12-07T08:04:46;19.50;;;11.10;;
39356;SDS011;25077;50.302;18.996;2022-12-07T08:07:49;17.30;;;10.37;;
39356;SDS011;25077;50.302;18.996;2022-12-07T08:10:51;18.03;;;11.17;;
39356;SDS011;25077;50.302;18.996;2022-12-07T08:13:53;14.60;;;9.93;;
39356;SDS011;25077;50.302;18.996;2022-12-07T08:16:55;15.93;;;10.40;;
39356;SDS011;25077;50.302;18.996;2022-12-07T08:19:58;14.60;;;9.43;;
39356;SDS011;25077;50.302;18.996;2022-12-07T08:23:01;21.93;;;11.97;;
39356;SDS011;25077;50.302;18.996;2022-12-07T08:26:04;16.97;;;10.03;;
39356;SDS011;25077;50.302;18.996;2022-12-07T08:29:08;20.20;;;10.47;;
39356;SDS011;25077;50.302;18.996;2022-12-07T08:32:10;20.40;;;11.67;;
39356;SDS011;25077;50.302;18.996;2022-12-07T08:35:12;18.07;;;10.87;;
39356;SDS011;25077;50.302;18.996;2022-12-07T08:38:16;20.57;;;11.40;;
39356;SDS011;25077;50.302;18.996;2022-12-07T08:41:18;18.33;;;11.27;;
39356;SDS011;25077;50.302;18.996;2022-12-07T08:44:20;20.33;;;13.07;;
39356;SDS011;25077;50.302;18.996;2022-12-07T08:47:22;22.83;;;14.50;;
39356;SDS011;25077;50.302;18.996;2022-12-07T08:50:25;24.27;;;14.80;;
39356;SDS011;25077;50.302;18.996;2022-12-07T08:53:30;26.77;;;14.97;;
39356;SDS011;25077;50.302;18.996;2022-12-07T08:56:33;28.07;;;17.47;;
39356;SDS011;25077;50.302;18.996;2022-12-07T08:59:36;28.60;;;17.10;;
39356;SDS011;25077;50.302;18.996;2022-12-07T09:02:39;29.90;;;18.83;;
39356;SDS011;25077;50.302;18.996;2022-12-07T09:05:41;31.43;;;18.73;;
39356;SDS011;25077;50.302;18.996;2022-12-07T09:08:45;31.00;;;19.10;;
39356;SDS011;25077;50.302;18.996;2022-12-07T09:11:51;29.87;;;18.33;;
39356;SDS011;25077;50.302;18.996;2022-12-07T09:14:53;33.37;;;18.77;;
39356;SDS011;25077;50.302;18.996;2022-12-07T09:17:55;22.53;;;13.93;;
39356;SDS011;25077;50.302;18.996;2022-12-07T09:20:57;21.63;;;14.10;;
39356;SDS011;25077;50.302;18.996;2022-12-07T09:24:00;19.07;;;11.63;;
39356;SDS011;25077;50.302;18.996;2022-12-07T09:27:02;15.77;;;10.30;;
39356;SDS011;25077;50.302;18.996;2022-12-07T09:30:05;19.30;;;11.30;;
39356;SDS011;25077;50.302;18.996;2022-12-07T09:33:08;18.17;;;11.03;;
39356;SDS011;25077;50.302;18.996;2022-12-07T09:36:10;16.20;;;11.27;;
39356;SDS011;25077;50.302;18.996;2022-12-07T09:39:14;21.23;;;11.67;;
39356;SDS011;25077;50.302;18.996;2022-12-07T09:42:21;22.40;;;12.33;;
39356;SDS011;25077;50.302;18.996;2022-12-07T09:45:30;27.83;;;14.40;;
39356;SDS011;25077;50.302;18.996;2022-12-07T09:48:36;24.20;;;15.43;;
39356;SDS011;25077;50.302;18.996;2022-12-07T09:51:40;26.17;;;15.50;;
39356;SDS011;25077;50.302;18.996;2022-12-07T09:54:46;25.07;;;15.63;;
39356;SDS011;25077;50.302;18.996;2022-12-07T09:57:50;21.77;;;14.33;;
39356;SDS011;25077;50.302;18.996;2022-12-07T10:00:55;25.20;;;16.07;;
39356;SDS011;25077;50.302;18.996;2022-12-07T10:04:00;28.13;;;16.10;;
39356;SDS011;25077;50.302;18.996;2022-12-07T10:07:11;26.83;;;15.10;;
39356;SDS011;25077;50.302;18.996;2022-12-07T10:10:15;22.50;;;12.97;;
39356;SDS011;25077;50.302;18.996;2022-12-07T10:13:23;26.00;;;12.87;;
39356;SDS011;25077;50.302;18.996;2022-12-07T10:16:37;21.03;;;12.00;;
39356;SDS011;25077;50.302;18.996;2022-12-07T10:19:41;20.23;;;11.30;;
39356;SDS011;25077;50.302;18.996;2022-12-07T10:22:56;19.30;;;11.27;;
39356;SDS011;25077;50.302;18.996;2022-12-07T10:26:05;18.90;;;10.93;;
39356;SDS011;25077;50.302;18.996;2022-12-07T10:29:23;16.43;;;10.53;;
39356;SDS011;25077;50.302;18.996;2022-12-07T10:32:31;19.50;;;11.23;;
39356;SDS011;25077;50.302;18.996;2022-12-07T10:35:35;21.77;;;11.60;;
39356;SDS011;25077;50.302;18.996;2022-12-07T10:38:46;15.80;;;9.67;;
39356;SDS011;25077;50.302;18.996;2022-12-07T10:41:55;18.63;;;10.57;;
39356;SDS011;25077;50.302;18.996;2022-12-07T10:45:07;18.43;;;11.03;;
39356;SDS011;25077;50.302;18.996;2022-12-07T10:48:11;17.57;;;10.53;;
39356;SDS011;25077;50.302;18.996;2022-12-07T10:51:23;18.63;;;11.00;;
39356;SDS011;25077;50.302;18.996;2022-12-07T10:54:36;14.23;;;8.33;;
39356;SDS011;25077;50.302;18.996;2022-12-07T10:57:54;20.37;;;9.20;;
39356;SDS011;25077;50.302;18.996;2022-12-07T11:01:09;18.20;;;9.87;;
39356;SDS011;25077;50.302;18.996;2022-12-07T11:04:29;17.07;;;9.83;;
39356;SDS011;25077;50.302;18.996;2022-12-07T11:07:39;17.00;;;9.40;;
39356;SDS011;25077;50.302;18.996;2022-12-07T11:10:50;18.80;;;9.83;;
39356;SDS011;25077;50.302;18.996;2022-12-07T11:14:01;19.63;;;9.47;;
39356;SDS011;25077;50.302;18.996;2022-12-07T11:17:12;15.13;;;8.20;;
39356;SDS011;25077;50.302;18.996;2022-12-07T11:20:24;15.63;;;8.80;;
39356;SDS011;25077;50.302;18.996;2022-12-07T11:23:41;15.27;;;7.83;;
39356;SDS011;25077;50.302;18.996;2022-12-07T11:26:55;14.87;;;7.73;;
39356;SDS011;25077;50.302;18.996;2022-12-07T11:30:10;17.27;;;8.30;;
39356;SDS011;25077;50.302;18.996;2022-12-07T11:33:17;12.37;;;6.63;;
39356;SDS011;25077;50.302;18.996;2022-12-07T11:36:29;11.47;;;6.97;;
39356;SDS011;25077;50.302;18.996;2022-12-07T11:39:39;12.40;;;7.87;;
39356;SDS011;25077;50.302;18.996;2022-12-07T11:42:47;11.53;;;7.47;;
39356;SDS011;25077;50.302;18.996;2022-12-07T11:45:56;12.43;;;6.67;;
39356;SDS011;25077;50.302;18.996;2022-12-07T11:49:07;15.20;;;7.67;;
39356;SDS011;25077;50.302;18.996;2022-12-07T11:52:20;10.47;;;5.20;;
39356;SDS011;25077;50.302;18.996;2022-12-07T11:55:40;10.77;;;6.57;;
39356;SDS011;25077;50.302;18.996;2022-12-07T11:58:47;9.47;;;6.10;;
39356;SDS011;25077;50.302;18.996;2022-12-07T12:01:55;13.63;;;6.60;;
39356;SDS011;25077;50.302;18.996;2022-12-07T12:05:02;10.20;;;5.90;;
39356;SDS011;25077;50.302;18.996;2022-12-07T12:08:14;10.40;;;5.40;;
39356;SDS011;25077;50.302;18.996;2022-12-07T12:11:25;9.47;;;5.27;;
39356;SDS011;25077;50.302;18.996;2022-12-07T12:14:46;9.03;;;6.67;;
39356;SDS011;25077;50.302;18.996;2022-12-07T12:18:18;8.80;;;5.50;;
39356;SDS011;25077;50.302;18.996;2022-12-07T12:21:35;9.53;;;5.60;;
39356;SDS011;25077;50.302;18.996;2022-12-07T12:24:39;10.23;;;5.37;;
39356;SDS011;25077;50.302;18.996;2022-12-07T12:27:42;7.03;;;4.90;;
39356;SDS011;25077;50.302;18.996;2022-12-07T12:31:04;9.40;;;5.27;;
39356;SDS011;25077;50.302;18.996;2022-12-07T12:37:43;9.40;;;5.20;;
39356;SDS011;25077;50.302;18.996;2022-12-07T12:40:47;7.43;;;4.93;;
39356;SDS011;25077;50.302;18.996;2022-12-07T12:43:50;9.20;;;5.23;;
39356;SDS011;25077;50.302;18.996;2022-12-07T12:46:53;10.70;;;5.43;;
39356;SDS011;25077;50.302;18.996;2022-12-07T12:50:12;9.33;;;5.83;;
39356;SDS011;25077;50.302;18.996;2022-12-07T12:53:20;8.30;;;5.10;;
39356;SDS011;25077;50.302;18.996;2022-12-07T12:56:29;8.90;;;5.33;;
39356;SDS011;25077;50.302;18.996;2022-12-07T12:59:41;8.63;;;4.80;;
39356;SDS011;25077;50.302;18.996;2022-12-07T13:02:47;11.27;;;5.80;;
39356;SDS011;25077;50.302;18.996;2022-12-07T13:09:22;12.70;;;5.97;;
39356;SDS011;25077;50.302;18.996;2022-12-07T13:12:26;10.10;;;5.40;;
39356;SDS011;25077;50.302;18.996;2022-12-07T13:15:33;10.30;;;5.13;;
39356;SDS011;25077;50.302;18.996;2022-12-07T13:18:38;8.20;;;4.87;;
39356;SDS011;25077;50.302;18.996;2022-12-07T13:21:41;6.63;;;4.30;;
39356;SDS011;25077;50.302;18.996;2022-12-07T13:24:45;9.93;;;5.07;;
39356;SDS011;25077;50.302;18.996;2022-12-07T13:27:50;6.90;;;4.60;;
39356;SDS011;25077;50.302;18.996;2022-12-07T13:31:02;9.07;;;5.27;;
39356;SDS011;25077;50.302;18.996;2022-12-07T13:34:30;9.73;;;5.33;;
39356;SDS011;25077;50.302;18.996;2022-12-07T13:37:33;9.80;;;5.47;;
39356;SDS011;25077;50.302;18.996;2022-12-07T13:40:37;8.77;;;5.07;;
39356;SDS011;25077;50.302;18.996;2022-12-07T13:43:42;8.30;;;5.37;;
39356;SDS011;25077;50.302;18.996;2022-12-07T13:46:48;8.07;;;4.70;;
39356;SDS011;25077;50.302;18.996;2022-12-07T13:49:55;7.90;;;4.70;;
39356;SDS011;25077;50.302;18.996;2022-12-07T13:52:59;7.37;;;4.90;;
39356;SDS011;25077;50.302;18.996;2022-12-07T13:56:04;7.17;;;4.50;;
39356;SDS011;25077;50.302;18.996;2022-12-07T13:59:10;6.97;;;4.73;;
39356;SDS011;25077;50.302;18.996;2022-12-07T14:02:19;7.27;;;4.63;;
39356;SDS011;25077;50.302;18.996;2022-12-07T14:05:23;7.17;;;4.57;;
39356;SDS011;25077;50.302;18.996;2022-12-07T14:08:29;12.87;;;5.10;;
39356;SDS011;25077;50.302;18.996;2022-12-07T14:11:33;8.33;;;5.03;;
39356;SDS011;25077;50.302;18.996;2022-12-07T14:14:35;9.40;;;4.27;;
39356;SDS011;25077;50.302;18.996;2022-12-07T14:17:38;7.13;;;4.33;;
39356;SDS011;25077;50.302;18.996;2022-12-07T14:21:01;13.87;;;6.40;;
39356;SDS011;25077;50.302;18.996;2022-12-07T14:24:12;11.50;;;5.43;;
39356;SDS011;25077;50.302;18.996;2022-12-07T14:27:20;8.87;;;5.07;;
39356;SDS011;25077;50.302;18.996;2022-12-07T14:30:27;10.93;;;5.90;;
39356;SDS011;25077;50.302;18.996;2022-12-07T14:33:30;10.10;;;6.00;;
39356;SDS011;25077;50.302;18.996;2022-12-07T14:36:32;10.93;;;6.53;;
39356;SDS011;25077;50.302;18.996;2022-12-07T14:39:34;12.77;;;6.67;;
39356;SDS011;25077;50.302;18.996;2022-12-07T14:42:37;13.00;;;7.13;;
39356;SDS011;25077;50.302;18.996;2022-12-07T14:45:41;12.47;;;7.33;;
39356;SDS011;25077;50.302;18.996;2022-12-07T14:48:43;14.80;;;7.93;;
39356;SDS011;25077;50.302;18.996;2022-12-07T14:51:46;18.93;;;8.53;;
39356;SDS011;25077;50.302;18.996;2022-12-07T14:54:48;16.43;;;9.00;;
39356;SDS011;25077;50.302;18.996;2022-12-07T14:57:52;15.37;;;9.13;;
39356;SDS011;25077;50.302;18.996;2022-12-07T15:00:54;18.10;;;9.97;;
39356;SDS011;25077;50.302;18.996;2022-12-07T15:03:56;16.47;;;8.77;;
39356;SDS011;25077;50.302;18.996;2022-12-07T15:06:59;15.10;;;8.53;;
39356;SDS011;25077;50.302;18.996;2022-12-07T15:10:03;14.33;;;7.87;;
39356;SDS011;25077;50.302;18.996;2022-12-07T15:13:08;14.00;;;6.83;;
39356;SDS011;25077;50.302;18.996;2022-12-07T15:16:30;14.30;;;7.63;;
39356;SDS011;25077;50.302;18.996;2022-12-07T15:19:32;12.43;;;7.13;;
39356;SDS011;25077;50.302;18.996;2022-12-07T15:22:34;10.57;;;6.83;;
39356;SDS011;25077;50.302;18.996;2022-12-07T15:25:36;12.00;;;7.20;;
39356;SDS011;25077;50.302;18.996;2022-12-07T15:28:43;11.27;;;6.53;;
39356;SDS011;25077;50.302;18.996;2022-12-07T15:31:45;12.60;;;7.33;;
39356;SDS011;25077;50.302;18.996;2022-12-07T15:34:47;12.63;;;7.30;;
39356;SDS011;25077;50.302;18.996;2022-12-07T15:37:50;13.27;;;6.60;;
39356;SDS011;25077;50.302;18.996;2022-12-07T15:40:52;14.30;;;7.00;;
39356;SDS011;25077;50.302;18.996;2022-12-07T15:43:55;13.30;;;8.20;;
39356;SDS011;25077;50.302;18.996;2022-12-07T15:47:14;13.20;;;7.20;;
39356;SDS011;25077;50.302;18.996;2022-12-07T15:50:17;14.30;;;7.03;;
39356;SDS011;25077;50.302;18.996;2022-12-07T15:53:19;10.03;;;5.87;;
39356;SDS011;25077;50.302;18.996;2022-12-07T15:56:21;12.10;;;6.77;;
39356;SDS011;25077;50.302;18.996;2022-12-07T15:59:25;7.53;;;4.97;;
39356;SDS011;25077;50.302;18.996;2022-12-07T16:02:28;9.63;;;5.53;;
39356;SDS011;25077;50.302;18.996;2022-12-07T16:05:31;10.83;;;6.23;;
39356;SDS011;25077;50.302;18.996;2022-12-07T16:08:33;10.47;;;6.37;;
39356;SDS011;25077;50.302;18.996;2022-12-07T16:11:36;13.00;;;6.67;;
39356;SDS011;25077;50.302;18.996;2022-12-07T16:14:40;12.30;;;6.93;;
39356;SDS011;25077;50.302;18.996;2022-12-07T16:17:42;13.57;;;7.23;;
39356;SDS011;25077;50.302;18.996;2022-12-07T16:20:47;12.60;;;7.00;;
39356;SDS011;25077;50.302;18.996;2022-12-07T16:23:49;13.27;;;6.97;;
39356;SDS011;25077;50.302;18.996;2022-12-07T16:26:51;14.37;;;7.67;;
39356;SDS011;25077;50.302;18.996;2022-12-07T16:29:54;15.10;;;7.83;;
39356;SDS011;25077;50.302;18.996;2022-12-07T16:32:57;14.07;;;7.67;;
39356;SDS011;25077;50.302;18.996;2022-12-07T16:36:00;13.97;;;7.63;;
39356;SDS011;25077;50.302;18.996;2022-12-07T16:39:02;14.30;;;6.90;;
39356;SDS011;25077;50.302;18.996;2022-12-07T16:42:06;16.10;;;8.20;;
39356;SDS011;25077;50.302;18.996;2022-12-07T16:45:09;11.33;;;7.30;;
39356;SDS011;25077;50.302;18.996;2022-12-07T16:48:11;15.17;;;7.63;;
39356;SDS011;25077;50.302;18.996;2022-12-07T16:51:13;16.27;;;7.57;;
39356;SDS011;25077;50.302;18.996;2022-12-07T16:54:16;14.03;;;8.07;;
39356;SDS011;25077;50.302;18.996;2022-12-07T16:57:18;15.53;;;8.67;;
39356;SDS011;25077;50.302;18.996;2022-12-07T17:00:21;20.70;;;9.43;;
39356;SDS011;25077;50.302;18.996;2022-12-07T17:03:23;19.57;;;10.17;;
39356;SDS011;25077;50.302;18.996;2022-12-07T17:06:26;21.90;;;11.00;;
39356;SDS011;25077;50.302;18.996;2022-12-07T17:09:29;20.30;;;10.23;;
39356;SDS011;25077;50.302;18.996;2022-12-07T17:12:31;24.90;;;11.30;;
39356;SDS011;25077;50.302;18.996;2022-12-07T17:15:35;27.20;;;11.90;;
39356;SDS011;25077;50.302;18.996;2022-12-07T17:18:36;23.20;;;11.60;;
39356;SDS011;25077;50.302;18.996;2022-12-07T17:21:38;20.77;;;10.53;;
39356;SDS011;25077;50.302;18.996;2022-12-07T17:24:40;25.50;;;11.57;;
39356;SDS011;25077;50.302;18.996;2022-12-07T17:27:43;29.23;;;12.70;;
39356;SDS011;25077;50.302;18.996;2022-12-07T17:30:47;23.87;;;11.73;;
39356;SDS011;25077;50.302;18.996;2022-12-07T17:33:49;21.10;;;11.07;;
39356;SDS011;25077;50.302;18.996;2022-12-07T17:36:52;19.50;;;9.80;;
39356;SDS011;25077;50.302;18.996;2022-12-07T17:39:55;26.80;;;11.17;;
39356;SDS011;25077;50.302;18.996;2022-12-07T17:42:57;22.17;;;10.10;;
39356;SDS011;25077;50.302;18.996;2022-12-07T17:46:05;22.20;;;10.27;;
39356;SDS011;25077;50.302;18.996;2022-12-07T17:49:09;18.43;;;9.50;;
39356;SDS011;25077;50.302;18.996;2022-12-07T17:52:11;22.83;;;9.27;;
39356;SDS011;25077;50.302;18.996;2022-12-07T17:55:31;15.53;;;8.10;;
39356;SDS011;25077;50.302;18.996;2022-12-07T17:58:33;14.93;;;8.03;;
39356;SDS011;25077;50.302;18.996;2022-12-07T18:01:37;13.53;;;7.20;;
39356;SDS011;25077;50.302;18.996;2022-12-07T18:04:39;21.80;;;9.20;;